sensor_id;sensor_type;location;lat;lon;timestamp;P1;durP1;ratioP1;P2;durP2;ratioP2
22543;SDS011;11438;52.044;8.716;2023-03-01T00:00:41;7.80;;;3.90;;
22543;SDS011;11438;52.044;8.716;2023-03-01T00:03:11;6.30;;;3.93;;
22543;SDS011;11438;52.044;8.716;2023-03-01T00:05:36;5.47;;;3.87;;
22543;SDS011;11438;52.044;8.716;2023-03-01T00:08:09;6.17;;;3.97;;
22543;SDS011;11438;52.044;8.716;2023-03-01T00:10:34;6.83;;;4.23;;
22543;SDS011;11438;52.044;8.716;2023-03-01T00:13:00;6.53;;;4.30;;
22543;SDS011;11438;52.044;8.716;2023-03-01T00:15:26;8.37;;;4.20;;
22543;SDS011;11438;52.044;8.716;2023-03-01T00:17:51;7.17;;;4.30;;
22543;SDS011;11438;52.044;8.716;2023-03-01T00:20:17;7.03;;;4.37;;
22543;SDS011;11438;52.044;8.716;2023-03-01T00:22:42;7.00;;;4.47;;
22543;SDS011;11438;52.044;8.716;2023-03-01T00:25:08;6.13;;;4.30;;
22543;SDS011;11438;52.044;8.716;2023-03-01T00:27:34;8.00;;;4.23;;
22543;SDS011;11438;52.044;8.716;2023-03-01T00:29:59;7.33;;;4.30;;
22543;SDS011;11438;52.044;8.716;2023-03-01T00:32:25;10.13;;;5.10;;
22543;SDS011;11438;52.044;8.716;2023-03-01T00:34:50;9.53;;;5.40;;
22543;SDS011;11438;52.044;8.716;2023-03-01T00:37:22;8.80;;;4.97;;
22543;SDS011;11438;52.044;8.716;2023-03-01T00:39:48;10.27;;;5.43;;
22543;SDS011;11438;52.044;8.716;2023-03-01T00:42:14;7.53;;;4.57;;
22543;SDS011;11438;52.044;8.716;2023-03-01T00:44:40;12.60;;;4.77;;
22543;SDS011;11438;52.044;8.716;2023-03-01T00:47:06;6.37;;;4.20;;
22543;SDS011;11438;52.044;8.716;2023-03-01T00:49:31;5.57;;;3.77;;
22543;SDS011;11438;52.044;8.716;2023-03-01T00:51:57;6.70;;;3.83;;
22543;SDS011;11438;52.044;8.716;2023-03-01T00:54:22;6.30;;;3.70;;
22543;SDS011;11438;52.044;8.716;2023-03-01T00:56:48;6.30;;;3.67;;
22543;SDS011;11438;52.044;8.716;2023-03-01T00:59:13;5.73;;;3.83;;
22543;SDS011;11438;52.044;8.716;2023-03-01T01:01:39;4.97;;;3.53;;
22543;SDS011;11438;52.044;8.716;2023-03-01T01:04:06;4.93;;;3.70;;
22543;SDS011;11438;52.044;8.716;2023-03-01T01:06:35;5.57;;;3.70;;
22543;SDS011;11438;52.044;8.716;2023-03-01T01:09:03;5.67;;;3.77;;
22543;SDS011;11438;52.044;8.716;2023-03-01T01:11:31;6.63;;;3.57;;
22543;SDS011;11438;52.044;8.716;2023-03-01T01:13:57;5.43;;;3.67;;
22543;SDS011;11438;52.044;8.716;2023-03-01T01:16:23;7.73;;;4.43;;
22543;SDS011;11438;52.044;8.716;2023-03-01T01:18:51;6.37;;;4.00;;
22543;SDS011;11438;52.044;8.716;2023-03-01T01:21:17;6.40;;;3.80;;
22543;SDS011;11438;52.044;8.716;2023-03-01T01:23:44;5.50;;;3.93;;
22543;SDS011;11438;52.044;8.716;2023-03-01T01:26:12;7.03;;;3.90;;
22543;SDS011;11438;52.044;8.716;2023-03-01T01:28:39;7.37;;;4.30;;
22543;SDS011;11438;52.044;8.716;2023-03-01T01:31:05;5.93;;;3.90;;
22543;SDS011;11438;52.044;8.716;2023-03-01T01:33:30;5.27;;;3.90;;
22543;SDS011;11438;52.044;8.716;2023-03-01T01:35:56;8.30;;;5.33;;
22543;SDS011;11438;52.044;8.716;2023-03-01T01:38:21;8.00;;;4.80;;
22543;SDS011;11438;52.044;8.716;2023-03-01T01:40:48;8.57;;;4.80;;
22543;SDS011;11438;52.044;8.716;2023-03-01T01:43:19;6.63;;;4.30;;
22543;SDS011;11438;52.044;8.716;2023-03-01T01:45:47;6.73;;;4.53;;
22543;SDS011;11438;52.044;8.716;2023-03-01T01:48:16;7.07;;;4.53;;
22543;SDS011;11438;52.044;8.716;2023-03-01T01:50:45;6.47;;;4.53;;
22543;SDS011;11438;52.044;8.716;2023-03-01T01:53:16;7.97;;;4.90;;
22543;SDS011;11438;52.044;8.716;2023-03-01T01:55:49;7.73;;;4.93;;
22543;SDS011;11438;52.044;8.716;2023-03-01T01:58:23;9.37;;;5.00;;
22543;SDS011;11438;52.044;8.716;2023-03-01T02:00:51;6.47;;;4.47;;
22543;SDS011;11438;52.044;8.716;2023-03-01T02:03:19;8.43;;;5.23;;
22543;SDS011;11438;52.044;8.716;2023-03-01T02:05:55;7.07;;;5.03;;
22543;SDS011;11438;52.044;8.716;2023-03-01T02:08:27;7.17;;;5.00;;
22543;SDS011;11438;52.044;8.716;2023-03-01T02:10:55;6.43;;;4.33;;
22543;SDS011;11438;52.044;8.716;2023-03-01T02:13:22;6.43;;;4.23;;
22543;SDS011;11438;52.044;8.716;2023-03-01T02:15:48;5.57;;;4.17;;
22543;SDS011;11438;52.044;8.716;2023-03-01T02:18:15;6.07;;;4.10;;
22543;SDS011;11438;52.044;8.716;2023-03-01T02:23:52;6.27;;;4.07;;
22543;SDS011;11438;52.044;8.716;2023-03-01T02:26:25;6.37;;;4.30;;
22543;SDS011;11438;52.044;8.716;2023-03-01T02:29:00;5.93;;;4.43;;
22543;SDS011;11438;52.044;8.716;2023-03-01T02:31:25;8.90;;;4.90;;
22543;SDS011;11438;52.044;8.716;2023-03-01T02:34:07;7.67;;;4.70;;
22543;SDS011;11438;52.044;8.716;2023-03-01T02:36:36;6.53;;;4.63;;
22543;SDS011;11438;52.044;8.716;2023-03-01T02:39:05;5.73;;;4.00;;
22543;SDS011;11438;52.044;8.716;2023-03-01T02:41:39;6.50;;;4.07;;
22543;SDS011;11438;52.044;8.716;2023-03-01T02:44:07;5.60;;;4.17;;
22543;SDS011;11438;52.044;8.716;2023-03-01T02:46:33;7.63;;;4.77;;
22543;SDS011;11438;52.044;8.716;2023-03-01T02:52:13;6.10;;;4.33;;
22543;SDS011;11438;52.044;8.716;2023-03-01T02:57:38;7.17;;;4.40;;
22543;SDS011;11438;52.044;8.716;2023-03-01T03:00:07;6.30;;;4.43;;
22543;SDS011;11438;52.044;8.716;2023-03-01T03:02:36;5.97;;;3.70;;
22543;SDS011;11438;52.044;8.716;2023-03-01T03:05:03;6.23;;;3.67;;
22543;SDS011;11438;52.044;8.716;2023-03-01T03:07:31;5.83;;;4.00;;
22543;SDS011;11438;52.044;8.716;2023-03-01T03:09:58;6.53;;;4.63;;
22543;SDS011;11438;52.044;8.716;2023-03-01T03:12:23;8.50;;;4.60;;
22543;SDS011;11438;52.044;8.716;2023-03-01T03:14:49;8.17;;;5.00;;
22543;SDS011;11438;52.044;8.716;2023-03-01T03:17:14;9.60;;;4.57;;
22543;SDS011;11438;52.044;8.716;2023-03-01T03:19:40;8.20;;;4.73;;
22543;SDS011;11438;52.044;8.716;2023-03-01T03:22:05;6.53;;;4.03;;
22543;SDS011;11438;52.044;8.716;2023-03-01T03:24:30;5.97;;;4.43;;
22543;SDS011;11438;52.044;8.716;2023-03-01T03:27:03;18.57;;;7.37;;
22543;SDS011;11438;52.044;8.716;2023-03-01T03:29:32;9.10;;;5.17;;
22543;SDS011;11438;52.044;8.716;2023-03-01T03:31:58;8.40;;;5.13;;
22543;SDS011;11438;52.044;8.716;2023-03-01T03:34:24;6.97;;;4.47;;
22543;SDS011;11438;52.044;8.716;2023-03-01T03:36:56;6.77;;;4.47;;
22543;SDS011;11438;52.044;8.716;2023-03-01T03:39:24;6.80;;;3.93;;
22543;SDS011;11438;52.044;8.716;2023-03-01T03:41:51;7.40;;;5.00;;
22543;SDS011;11438;52.044;8.716;2023-03-01T03:44:16;7.00;;;4.17;;
22543;SDS011;11438;52.044;8.716;2023-03-01T03:46:42;4.80;;;3.70;;
22543;SDS011;11438;52.044;8.716;2023-03-01T03:49:07;8.33;;;4.30;;
22543;SDS011;11438;52.044;8.716;2023-03-01T03:51:33;7.43;;;4.87;;
22543;SDS011;11438;52.044;8.716;2023-03-01T03:53:58;4.87;;;3.70;;
22543;SDS011;11438;52.044;8.716;2023-03-01T03:56:23;5.57;;;4.27;;
22543;SDS011;11438;52.044;8.716;2023-03-01T03:58:51;6.00;;;3.90;;
22543;SDS011;11438;52.044;8.716;2023-03-01T04:01:17;7.70;;;4.77;;
22543;SDS011;11438;52.044;8.716;2023-03-01T04:03:42;6.93;;;4.87;;
22543;SDS011;11438;52.044;8.716;2023-03-01T04:06:11;11.73;;;5.73;;
22543;SDS011;11438;52.044;8.716;2023-03-01T04:08:39;7.37;;;5.07;;
22543;SDS011;11438;52.044;8.716;2023-03-01T04:11:06;9.40;;;5.00;;
22543;SDS011;11438;52.044;8.716;2023-03-01T04:13:51;10.63;;;4.57;;
22543;SDS011;11438;52.044;8.716;2023-03-01T04:16:18;9.80;;;5.30;;
22543;SDS011;11438;52.044;8.716;2023-03-01T04:18:44;7.10;;;4.50;;
22543;SDS011;11438;52.044;8.716;2023-03-01T04:21:10;7.57;;;4.60;;
22543;SDS011;11438;52.044;8.716;2023-03-01T04:23:36;6.77;;;4.63;;
22543;SDS011;11438;52.044;8.716;2023-03-01T04:26:02;5.97;;;4.17;;
22543;SDS011;11438;52.044;8.716;2023-03-01T04:28:29;6.07;;;4.77;;
22543;SDS011;11438;52.044;8.716;2023-03-01T04:30:58;6.33;;;4.63;;
22543;SDS011;11438;52.044;8.716;2023-03-01T04:33:38;6.17;;;4.33;;
22543;SDS011;11438;52.044;8.716;2023-03-01T04:36:14;5.57;;;4.27;;
22543;SDS011;11438;52.044;8.716;2023-03-01T04:38:40;6.60;;;4.37;;
22543;SDS011;11438;52.044;8.716;2023-03-01T04:41:07;6.63;;;4.50;;
22543;SDS011;11438;52.044;8.716;2023-03-01T04:43:34;6.23;;;4.57;;
22543;SDS011;11438;52.044;8.716;2023-03-01T04:46:04;6.93;;;4.90;;
22543;SDS011;11438;52.044;8.716;2023-03-01T04:48:36;7.23;;;4.80;;
22543;SDS011;11438;52.044;8.716;2023-03-01T04:51:02;8.10;;;5.10;;
22543;SDS011;11438;52.044;8.716;2023-03-01T04:53:29;9.90;;;5.13;;
22543;SDS011;11438;52.044;8.716;2023-03-01T04:55:55;8.40;;;5.17;;
22543;SDS011;11438;52.044;8.716;2023-03-01T04:58:25;7.13;;;5.03;;
22543;SDS011;11438;52.044;8.716;2023-03-01T05:00:52;6.37;;;5.20;;
22543;SDS011;11438;52.044;8.716;2023-03-01T05:03:18;9.03;;;5.37;;
22543;SDS011;11438;52.044;8.716;2023-03-01T05:05:45;6.97;;;5.00;;
22543;SDS011;11438;52.044;8.716;2023-03-01T05:08:14;7.70;;;5.47;;
22543;SDS011;11438;52.044;8.716;2023-03-01T05:10:48;7.10;;;5.00;;
22543;SDS011;11438;52.044;8.716;2023-03-01T05:13:15;7.57;;;5.30;;
22543;SDS011;11438;52.044;8.716;2023-03-01T05:15:46;8.43;;;5.43;;
22543;SDS011;11438;52.044;8.716;2023-03-01T05:18:25;9.87;;;5.97;;
22543;SDS011;11438;52.044;8.716;2023-03-01T05:20:55;8.50;;;5.30;;
22543;SDS011;11438;52.044;8.716;2023-03-01T05:23:23;6.83;;;5.00;;
22543;SDS011;11438;52.044;8.716;2023-03-01T05:25:49;6.33;;;4.37;;
22543;SDS011;11438;52.044;8.716;2023-03-01T05:28:17;8.20;;;5.13;;
22543;SDS011;11438;52.044;8.716;2023-03-01T05:30:43;6.77;;;5.13;;
22543;SDS011;11438;52.044;8.716;2023-03-01T05:33:08;7.07;;;5.13;;
22543;SDS011;11438;52.044;8.716;2023-03-01T05:35:40;8.23;;;5.47;;
22543;SDS011;11438;52.044;8.716;2023-03-01T05:38:07;6.70;;;4.87;;
22543;SDS011;11438;52.044;8.716;2023-03-01T05:40:33;7.20;;;5.40;;
22543;SDS011;11438;52.044;8.716;2023-03-01T05:42:59;6.83;;;4.83;;
22543;SDS011;11438;52.044;8.716;2023-03-01T05:45:25;10.47;;;5.00;;
22543;SDS011;11438;52.044;8.716;2023-03-01T05:47:52;7.50;;;5.00;;
22543;SDS011;11438;52.044;8.716;2023-03-01T05:50:21;6.83;;;4.80;;
22543;SDS011;11438;52.044;8.716;2023-03-01T05:52:54;7.10;;;4.90;;
22543;SDS011;11438;52.044;8.716;2023-03-01T05:55:21;8.50;;;4.83;;
22543;SDS011;11438;52.044;8.716;2023-03-01T05:57:47;9.60;;;4.80;;
22543;SDS011;11438;52.044;8.716;2023-03-01T06:00:15;10.97;;;5.20;;
22543;SDS011;11438;52.044;8.716;2023-03-01T06:02:42;7.63;;;5.10;;
22543;SDS011;11438;52.044;8.716;2023-03-01T06:05:08;8.87;;;5.10;;
22543;SDS011;11438;52.044;8.716;2023-03-01T06:07:35;8.53;;;5.43;;
22543;SDS011;11438;52.044;8.716;2023-03-01T06:10:01;7.90;;;4.80;;
22543;SDS011;11438;52.044;8.716;2023-03-01T06:12:31;8.67;;;4.53;;
22543;SDS011;11438;52.044;8.716;2023-03-01T06:17:53;6.73;;;4.73;;
22543;SDS011;11438;52.044;8.716;2023-03-01T06:20:22;7.53;;;4.70;;
22543;SDS011;11438;52.044;8.716;2023-03-01T06:22:50;7.80;;;5.10;;
22543;SDS011;11438;52.044;8.716;2023-03-01T06:25:16;7.37;;;5.07;;
22543;SDS011;11438;52.044;8.716;2023-03-01T06:27:44;8.27;;;5.23;;
22543;SDS011;11438;52.044;8.716;2023-03-01T06:30:10;9.03;;;5.40;;
22543;SDS011;11438;52.044;8.716;2023-03-01T06:32:38;9.07;;;5.60;;
22543;SDS011;11438;52.044;8.716;2023-03-01T06:35:07;7.80;;;5.60;;
22543;SDS011;11438;52.044;8.716;2023-03-01T06:37:37;6.80;;;4.57;;
22543;SDS011;11438;52.044;8.716;2023-03-01T06:40:04;7.17;;;5.00;;
22543;SDS011;11438;52.044;8.716;2023-03-01T06:42:33;6.83;;;4.53;;
22543;SDS011;11438;52.044;8.716;2023-03-01T06:44:59;7.37;;;5.13;;
22543;SDS011;11438;52.044;8.716;2023-03-01T06:47:25;7.40;;;5.33;;
22543;SDS011;11438;52.044;8.716;2023-03-01T06:49:50;7.47;;;4.93;;
22543;SDS011;11438;52.044;8.716;2023-03-01T06:52:16;7.20;;;5.00;;
22543;SDS011;11438;52.044;8.716;2023-03-01T06:54:41;7.40;;;4.90;;
22543;SDS011;11438;52.044;8.716;2023-03-01T06:57:07;10.10;;;5.50;;
22543;SDS011;11438;52.044;8.716;2023-03-01T06:59:32;7.43;;;5.40;;
22543;SDS011;11438;52.044;8.716;2023-03-01T07:01:58;8.13;;;5.50;;
22543;SDS011;11438;52.044;8.716;2023-03-01T07:04:23;8.57;;;5.47;;
22543;SDS011;11438;52.044;8.716;2023-03-01T07:06:48;8.70;;;5.70;;
22543;SDS011;11438;52.044;8.716;2023-03-01T07:09:20;7.80;;;5.23;;
22543;SDS011;11438;52.044;8.716;2023-03-01T07:11:48;7.40;;;4.73;;
22543;SDS011;11438;52.044;8.716;2023-03-01T07:14:14;7.60;;;5.20;;
22543;SDS011;11438;52.044;8.716;2023-03-01T07:16:40;7.80;;;5.20;;
22543;SDS011;11438;52.044;8.716;2023-03-01T07:19:06;6.83;;;5.20;;
22543;SDS011;11438;52.044;8.716;2023-03-01T07:21:31;8.17;;;5.30;;
22543;SDS011;11438;52.044;8.716;2023-03-01T07:23:57;8.73;;;5.63;;
22543;SDS011;11438;52.044;8.716;2023-03-01T07:26:22;9.03;;;5.83;;
22543;SDS011;11438;52.044;8.716;2023-03-01T07:28:48;8.70;;;5.83;;
22543;SDS011;11438;52.044;8.716;2023-03-01T07:31:13;9.27;;;5.47;;
22543;SDS011;11438;52.044;8.716;2023-03-01T07:33:39;9.17;;;5.73;;
22543;SDS011;11438;52.044;8.716;2023-03-01T07:36:05;8.97;;;5.97;;
22543;SDS011;11438;52.044;8.716;2023-03-01T07:38:31;12.23;;;5.53;;
22543;SDS011;11438;52.044;8.716;2023-03-01T07:41:00;8.87;;;6.23;;
22543;SDS011;11438;52.044;8.716;2023-03-01T07:43:30;7.40;;;5.97;;
22543;SDS011;11438;52.044;8.716;2023-03-01T07:46:00;7.73;;;6.10;;
22543;SDS011;11438;52.044;8.716;2023-03-01T07:48:26;8.53;;;6.23;;
22543;SDS011;11438;52.044;8.716;2023-03-01T07:50:52;11.47;;;6.80;;
22543;SDS011;11438;52.044;8.716;2023-03-01T07:53:17;11.83;;;7.00;;
22543;SDS011;11438;52.044;8.716;2023-03-01T07:55:43;9.77;;;6.53;;
22543;SDS011;11438;52.044;8.716;2023-03-01T07:58:08;9.77;;;6.70;;
22543;SDS011;11438;52.044;8.716;2023-03-01T08:00:34;9.03;;;6.50;;
22543;SDS011;11438;52.044;8.716;2023-03-01T08:03:00;8.60;;;6.20;;
22543;SDS011;11438;52.044;8.716;2023-03-01T08:05:26;15.77;;;10.88;;
22543;SDS011;11438;52.044;8.716;2023-03-01T08:07:51;12.67;;;8.63;;
22543;SDS011;11438;52.044;8.716;2023-03-01T08:10:17;11.73;;;7.70;;
22543;SDS011;11438;52.044;8.716;2023-03-01T08:12:43;10.87;;;7.10;;
22543;SDS011;11438;52.044;8.716;2023-03-01T08:15:08;10.60;;;6.97;;
22543;SDS011;11438;52.044;8.716;2023-03-01T08:17:34;10.70;;;7.10;;
22543;SDS011;11438;52.044;8.716;2023-03-01T08:20:00;10.00;;;7.30;;
22543;SDS011;11438;52.044;8.716;2023-03-01T08:22:25;10.80;;;7.87;;
22543;SDS011;11438;52.044;8.716;2023-03-01T08:24:51;14.67;;;8.10;;
22543;SDS011;11438;52.044;8.716;2023-03-01T08:27:16;11.93;;;8.40;;
22543;SDS011;11438;52.044;8.716;2023-03-01T08:29:42;12.47;;;8.37;;
22543;SDS011;11438;52.044;8.716;2023-03-01T08:32:08;12.03;;;7.90;;
22543;SDS011;11438;52.044;8.716;2023-03-01T08:34:33;12.37;;;7.90;;
22543;SDS011;11438;52.044;8.716;2023-03-01T08:37:00;14.37;;;8.87;;
22543;SDS011;11438;52.044;8.716;2023-03-01T08:39:26;14.73;;;8.70;;
22543;SDS011;11438;52.044;8.716;2023-03-01T08:41:52;12.83;;;8.37;;
22543;SDS011;11438;52.044;8.716;2023-03-01T08:44:18;15.43;;;8.57;;
22543;SDS011;11438;52.044;8.716;2023-03-01T08:46:45;12.50;;;8.43;;
22543;SDS011;11438;52.044;8.716;2023-03-01T08:49:15;13.10;;;8.17;;
22543;SDS011;11438;52.044;8.716;2023-03-01T08:51:42;14.57;;;9.23;;
22543;SDS011;11438;52.044;8.716;2023-03-01T08:54:17;11.40;;;8.40;;
22543;SDS011;11438;52.044;8.716;2023-03-01T08:56:44;10.97;;;7.73;;
22543;SDS011;11438;52.044;8.716;2023-03-01T08:59:10;9.60;;;7.47;;
22543;SDS011;11438;52.044;8.716;2023-03-01T09:01:36;14.63;;;8.10;;
22543;SDS011;11438;52.044;8.716;2023-03-01T09:04:02;12.27;;;8.83;;
22543;SDS011;11438;52.044;8.716;2023-03-01T09:06:32;13.83;;;8.57;;
22543;SDS011;11438;52.044;8.716;2023-03-01T09:08:58;14.77;;;8.50;;
22543;SDS011;11438;52.044;8.716;2023-03-01T09:11:24;12.07;;;7.50;;
22543;SDS011;11438;52.044;8.716;2023-03-01T09:13:50;16.57;;;8.60;;
22543;SDS011;11438;52.044;8.716;2023-03-01T09:16:16;13.53;;;9.27;;
22543;SDS011;11438;52.044;8.716;2023-03-01T09:18:44;16.70;;;9.20;;
22543;SDS011;11438;52.044;8.716;2023-03-01T09:21:14;17.07;;;9.10;;
22543;SDS011;11438;52.044;8.716;2023-03-01T09:23:41;10.97;;;7.37;;
22543;SDS011;11438;52.044;8.716;2023-03-01T09:26:09;13.07;;;8.27;;
22543;SDS011;11438;52.044;8.716;2023-03-01T09:28:37;13.37;;;8.83;;
22543;SDS011;11438;52.044;8.716;2023-03-01T09:31:03;15.47;;;8.40;;
22543;SDS011;11438;52.044;8.716;2023-03-01T09:33:30;13.97;;;8.33;;
22543;SDS011;11438;52.044;8.716;2023-03-01T09:36:01;14.60;;;8.57;;
22543;SDS011;11438;52.044;8.716;2023-03-01T09:38:28;12.90;;;8.30;;
22543;SDS011;11438;52.044;8.716;2023-03-01T09:40:54;12.37;;;8.37;;
22543;SDS011;11438;52.044;8.716;2023-03-01T09:43:23;12.70;;;8.43;;
22543;SDS011;11438;52.044;8.716;2023-03-01T09:46:04;12.93;;;7.80;;
22543;SDS011;11438;52.044;8.716;2023-03-01T09:48:38;12.27;;;8.00;;
22543;SDS011;11438;52.044;8.716;2023-03-01T09:51:09;15.03;;;8.53;;
22543;SDS011;11438;52.044;8.716;2023-03-01T09:53:42;14.57;;;8.20;;
22543;SDS011;11438;52.044;8.716;2023-03-01T09:58:47;13.70;;;7.63;;
22543;SDS011;11438;52.044;8.716;2023-03-01T10:06:29;12.20;;;8.27;;
22543;SDS011;11438;52.044;8.716;2023-03-01T10:08:55;10.70;;;7.20;;
22543;SDS011;11438;52.044;8.716;2023-03-01T10:11:28;12.07;;;7.20;;
22543;SDS011;11438;52.044;8.716;2023-03-01T10:13:59;14.00;;;8.10;;
22543;SDS011;11438;52.044;8.716;2023-03-01T10:19:08;9.73;;;6.67;;
22543;SDS011;11438;52.044;8.716;2023-03-01T10:21:41;10.87;;;6.27;;
22543;SDS011;11438;52.044;8.716;2023-03-01T10:24:11;13.07;;;6.57;;
22543;SDS011;11438;52.044;8.716;2023-03-01T10:26:44;10.73;;;6.13;;
22543;SDS011;11438;52.044;8.716;2023-03-01T10:29:12;9.37;;;6.37;;
22543;SDS011;11438;52.044;8.716;2023-03-01T10:34:09;11.23;;;6.80;;
22543;SDS011;11438;52.044;8.716;2023-03-01T10:36:37;8.77;;;6.37;;
22543;SDS011;11438;52.044;8.716;2023-03-01T10:39:10;9.63;;;6.53;;
22543;SDS011;11438;52.044;8.716;2023-03-01T10:41:57;9.87;;;6.00;;
22543;SDS011;11438;52.044;8.716;2023-03-01T10:49:46;11.30;;;5.93;;
22543;SDS011;11438;52.044;8.716;2023-03-01T10:52:26;10.10;;;5.93;;
22543;SDS011;11438;52.044;8.716;2023-03-01T10:54:56;9.13;;;5.37;;
22543;SDS011;11438;52.044;8.716;2023-03-01T10:57:29;6.47;;;4.00;;
22543;SDS011;11438;52.044;8.716;2023-03-01T11:00:02;6.70;;;4.07;;
22543;SDS011;11438;52.044;8.716;2023-03-01T11:03:11;7.60;;;4.33;;
22543;SDS011;11438;52.044;8.716;2023-03-01T11:05:37;8.40;;;4.57;;
22543;SDS011;11438;52.044;8.716;2023-03-01T11:08:33;6.23;;;3.77;;
22543;SDS011;11438;52.044;8.716;2023-03-01T11:13:54;7.47;;;3.40;;
22543;SDS011;11438;52.044;8.716;2023-03-01T11:16:25;8.40;;;3.93;;
22543;SDS011;11438;52.044;8.716;2023-03-01T11:21:34;5.43;;;3.53;;
22543;SDS011;11438;52.044;8.716;2023-03-01T11:24:04;5.80;;;3.60;;
22543;SDS011;11438;52.044;8.716;2023-03-01T11:26:35;5.00;;;2.93;;
22543;SDS011;11438;52.044;8.716;2023-03-01T11:29:06;4.83;;;3.20;;
22543;SDS011;11438;52.044;8.716;2023-03-01T11:31:41;5.13;;;3.23;;
22543;SDS011;11438;52.044;8.716;2023-03-01T11:34:11;7.17;;;3.67;;
22543;SDS011;11438;52.044;8.716;2023-03-01T11:36:56;6.53;;;3.77;;
22543;SDS011;11438;52.044;8.716;2023-03-01T11:39:33;5.43;;;3.33;;
22543;SDS011;11438;52.044;8.716;2023-03-01T11:42:30;8.47;;;3.47;;
22543;SDS011;11438;52.044;8.716;2023-03-01T11:45:06;7.47;;;3.77;;
22543;SDS011;11438;52.044;8.716;2023-03-01T11:50:17;8.20;;;4.00;;
22543;SDS011;11438;52.044;8.716;2023-03-01T11:58:58;7.73;;;3.60;;
22543;SDS011;11438;52.044;8.716;2023-03-01T12:12:32;6.50;;;3.73;;
22543;SDS011;11438;52.044;8.716;2023-03-01T12:36:53;7.57;;;3.43;;
22543;SDS011;11438;52.044;8.716;2023-03-01T12:39:44;4.80;;;3.10;;
22543;SDS011;11438;52.044;8.716;2023-03-01T12:42:30;4.90;;;2.70;;
22543;SDS011;11438;52.044;8.716;2023-03-01T12:47:58;4.57;;;2.88;;
22543;SDS011;11438;52.044;8.716;2023-03-01T12:50:40;5.50;;;2.73;;
22543;SDS011;11438;52.044;8.716;2023-03-01T12:53:31;4.60;;;2.57;;
22543;SDS011;11438;52.044;8.716;2023-03-01T12:56:01;4.47;;;2.70;;
22543;SDS011;11438;52.044;8.716;2023-03-01T12:58:42;5.47;;;2.80;;
22543;SDS011;11438;52.044;8.716;2023-03-01T13:01:30;3.90;;;2.50;;
22543;SDS011;11438;52.044;8.716;2023-03-01T13:17:47;4.88;;;2.58;;
22543;SDS011;11438;52.044;8.716;2023-03-01T13:20:19;4.22;;;2.78;;
22543;SDS011;11438;52.044;8.716;2023-03-01T13:23:06;5.93;;;3.00;;
22543;SDS011;11438;52.044;8.716;2023-03-01T13:25:32;5.43;;;2.80;;
22543;SDS011;11438;52.044;8.716;2023-03-01T13:31:02;5.83;;;2.70;;
22543;SDS011;11438;52.044;8.716;2023-03-01T13:33:51;5.10;;;2.80;;
22543;SDS011;11438;52.044;8.716;2023-03-01T13:44:11;4.35;;;2.80;;
22543;SDS011;11438;52.044;8.716;2023-03-01T13:46:43;4.35;;;2.72;;
22543;SDS011;11438;52.044;8.716;2023-03-01T13:49:11;5.60;;;2.60;;
22543;SDS011;11438;52.044;8.716;2023-03-01T13:51:43;3.97;;;2.63;;
22543;SDS011;11438;52.044;8.716;2023-03-01T13:54:12;7.22;;;2.75;;
22543;SDS011;11438;52.044;8.716;2023-03-01T13:56:40;5.78;;;3.03;;
22543;SDS011;11438;52.044;8.716;2023-03-01T13:59:15;4.90;;;2.78;;
22543;SDS011;11438;52.044;8.716;2023-03-01T14:01:42;5.13;;;2.95;;
22543;SDS011;11438;52.044;8.716;2023-03-01T14:04:18;4.55;;;3.03;;
22543;SDS011;11438;52.044;8.716;2023-03-01T14:06:46;5.28;;;2.70;;
22543;SDS011;11438;52.044;8.716;2023-03-01T14:09:19;4.38;;;2.97;;
22543;SDS011;11438;52.044;8.716;2023-03-01T14:14:53;6.65;;;3.03;;
22543;SDS011;11438;52.044;8.716;2023-03-01T14:17:45;6.82;;;3.40;;
22543;SDS011;11438;52.044;8.716;2023-03-01T14:20:24;6.97;;;3.50;;
22543;SDS011;11438;52.044;8.716;2023-03-01T14:22:53;6.43;;;3.55;;
22543;SDS011;11438;52.044;8.716;2023-03-01T14:25:26;5.70;;;3.28;;
22543;SDS011;11438;52.044;8.716;2023-03-01T14:28:00;5.97;;;3.20;;
22543;SDS011;11438;52.044;8.716;2023-03-01T14:30:43;6.40;;;3.70;;
22543;SDS011;11438;52.044;8.716;2023-03-01T14:33:26;5.28;;;3.22;;
22543;SDS011;11438;52.044;8.716;2023-03-01T14:38:31;4.70;;;3.33;;
22543;SDS011;11438;52.044;8.716;2023-03-01T14:41:03;6.20;;;3.28;;
22543;SDS011;11438;52.044;8.716;2023-03-01T14:43:33;5.50;;;2.95;;
22543;SDS011;11438;52.044;8.716;2023-03-01T14:46:00;5.70;;;3.33;;
22543;SDS011;11438;52.044;8.716;2023-03-01T14:48:26;4.35;;;2.58;;
22543;SDS011;11438;52.044;8.716;2023-03-01T14:50:53;4.07;;;2.63;;
22543;SDS011;11438;52.044;8.716;2023-03-01T14:53:23;5.93;;;2.63;;
22543;SDS011;11438;52.044;8.716;2023-03-01T14:55:52;5.10;;;2.77;;
22543;SDS011;11438;52.044;8.716;2023-03-01T14:58:27;4.85;;;2.78;;
22543;SDS011;11438;52.044;8.716;2023-03-01T15:00:54;5.78;;;2.53;;
22543;SDS011;11438;52.044;8.716;2023-03-01T15:03:30;3.58;;;2.20;;
22543;SDS011;11438;52.044;8.716;2023-03-01T15:06:01;3.80;;;2.30;;
22543;SDS011;11438;52.044;8.716;2023-03-01T15:08:29;5.85;;;2.60;;
22543;SDS011;11438;52.044;8.716;2023-03-01T15:13:28;4.30;;;2.63;;
22543;SDS011;11438;52.044;8.716;2023-03-01T15:16:02;3.78;;;2.35;;
22543;SDS011;11438;52.044;8.716;2023-03-01T15:18:29;4.35;;;2.42;;
22543;SDS011;11438;52.044;8.716;2023-03-01T15:20:55;6.37;;;2.23;;
22543;SDS011;11438;52.044;8.716;2023-03-01T15:23:29;4.57;;;2.60;;
22543;SDS011;11438;52.044;8.716;2023-03-01T15:25:56;3.28;;;2.05;;
22543;SDS011;11438;52.044;8.716;2023-03-01T15:28:33;3.22;;;2.05;;
22543;SDS011;11438;52.044;8.716;2023-03-01T15:31:22;5.32;;;2.35;;
22543;SDS011;11438;52.044;8.716;2023-03-01T15:33:49;3.70;;;2.47;;
22543;SDS011;11438;52.044;8.716;2023-03-01T15:39:01;4.60;;;2.55;;
22543;SDS011;11438;52.044;8.716;2023-03-01T15:41:28;4.00;;;2.40;;
22543;SDS011;11438;52.044;8.716;2023-03-01T15:43:57;4.57;;;2.53;;
22543;SDS011;11438;52.044;8.716;2023-03-01T15:46:25;4.97;;;2.38;;
22543;SDS011;11438;52.044;8.716;2023-03-01T15:49:02;5.72;;;2.58;;
22543;SDS011;11438;52.044;8.716;2023-03-01T15:51:51;3.60;;;2.30;;
22543;SDS011;11438;52.044;8.716;2023-03-01T15:54:19;4.40;;;2.43;;
22543;SDS011;11438;52.044;8.716;2023-03-01T15:56:48;4.47;;;2.28;;
22543;SDS011;11438;52.044;8.716;2023-03-01T15:59:13;4.95;;;2.72;;
22543;SDS011;11438;52.044;8.716;2023-03-01T16:01:40;4.20;;;2.42;;
22543;SDS011;11438;52.044;8.716;2023-03-01T16:04:06;5.30;;;2.50;;
22543;SDS011;11438;52.044;8.716;2023-03-01T16:06:31;5.07;;;2.55;;
22543;SDS011;11438;52.044;8.716;2023-03-01T16:08:57;4.27;;;2.50;;
22543;SDS011;11438;52.044;8.716;2023-03-01T16:11:23;4.85;;;2.60;;
22543;SDS011;11438;52.044;8.716;2023-03-01T16:13:48;6.10;;;2.47;;
22543;SDS011;11438;52.044;8.716;2023-03-01T16:16:14;4.73;;;2.20;;
22543;SDS011;11438;52.044;8.716;2023-03-01T16:18:42;4.40;;;2.57;;
22543;SDS011;11438;52.044;8.716;2023-03-01T16:21:16;4.43;;;2.50;;
22543;SDS011;11438;52.044;8.716;2023-03-01T16:23:53;3.90;;;2.60;;
22543;SDS011;11438;52.044;8.716;2023-03-01T16:26:18;5.35;;;2.83;;
22543;SDS011;11438;52.044;8.716;2023-03-01T16:28:44;4.40;;;2.67;;
22543;SDS011;11438;52.044;8.716;2023-03-01T16:31:10;4.60;;;2.83;;
22543;SDS011;11438;52.044;8.716;2023-03-01T16:33:36;4.53;;;2.42;;
22543;SDS011;11438;52.044;8.716;2023-03-01T16:36:09;4.95;;;2.60;;
22543;SDS011;11438;52.044;8.716;2023-03-01T16:38:37;3.42;;;2.40;;
22543;SDS011;11438;52.044;8.716;2023-03-01T16:41:04;5.40;;;2.78;;
22543;SDS011;11438;52.044;8.716;2023-03-01T16:43:30;4.23;;;2.70;;
22543;SDS011;11438;52.044;8.716;2023-03-01T16:45:56;5.97;;;2.60;;
22543;SDS011;11438;52.044;8.716;2023-03-01T16:48:23;4.77;;;2.40;;
22543;SDS011;11438;52.044;8.716;2023-03-01T16:50:56;4.25;;;2.50;;
22543;SDS011;11438;52.044;8.716;2023-03-01T16:53:23;3.17;;;2.20;;